Aviation Digital Data Service (ADDS)

Output produced by TAFs form (0659 UTC 03 September 2014)
found at http://aviationweather.gov/adds/tafs/
 
KASE 030520Z 0306/0406 20007KT P6SM SKC 
     FM031700 35008KT P6SM SKC 
     FM031900 22010G20KT P6SM FEW110 
     FM040200 19006KT P6SM SKC